Time;durP1;ratioP1;P1;durP2;ratioP2;P2;SDS_P1;SDS_P2;PMS_P1;PMS_P2;Temp;Humidity;BMP_temperature;BMP_pressure;BME280_temperature;BME280_humidity;BME280_pressure;Samples;Min_cycle;Max_cycle;Signal;HPM_P1;HPM_P2
2022/09/17 00:01:29;;;;;;;9.43;6.40;;;;;;;15.92;100.00;95790.88;5138657;27;20473;-57
2022/09/17 00:04:02;;;;;;;9.50;6.22;;;;;;;15.68;100.00;95796.63;5116647;27;20085;-56
2022/09/17 00:06:34;;;;;;;9.20;6.20;;;;;;;15.97;100.00;95793.78;5136631;27;20074;-56
2022/09/17 00:09:04;;;;;;;8.95;5.65;;;;;;;15.64;100.00;95793.50;5140338;27;20070;-51
2022/09/17 00:11:34;;;;;;;12.10;6.93;;;;;;;15.44;100.00;95795.97;5140086;27;20491;-51
2022/09/17 00:14:04;;;;;;;7.72;6.03;;;;;;;15.50;100.00;95800.53;5135445;27;20450;-56
2022/09/17 00:16:35;;;;;;;9.23;5.75;;;;;;;15.71;100.00;95797.06;5136653;27;20075;-52
2022/09/17 00:19:04;;;;;;;6.60;5.30;;;;;;;15.63;100.00;95797.19;5139078;27;20520;-57
2022/09/17 00:21:34;;;;;;;7.63;5.32;;;;;;;15.63;100.00;95798.00;5136480;27;20548;-52
2022/09/17 00:24:06;;;;;;;12.55;5.72;;;;;;;15.74;100.00;95793.19;5140010;27;20042;-54
2022/09/17 00:26:35;;;;;;;9.38;5.50;;;;;;;15.63;100.00;95798.00;5135951;27;20074;-56
2022/09/17 00:29:04;;;;;;;5.72;4.60;;;;;;;15.44;100.00;95807.44;5139600;27;20070;-57
2022/09/17 00:31:33;;;;;;;5.75;4.35;;;;;;;15.53;100.00;95799.34;5141803;27;20085;-55
2022/09/17 00:34:03;;;;;;;6.45;4.57;;;;;;;15.97;100.00;95806.25;5141324;27;20081;-54
2022/09/17 00:36:35;;;;;;;6.80;4.90;;;;;;;15.76;100.00;95801.78;5140337;27;20079;-53
2022/09/17 00:39:05;;;;;;;5.38;3.75;;;;;;;15.16;100.00;95796.75;5146226;27;20078;-53
2022/09/17 00:41:35;;;;;;;4.63;3.60;;;;;;;15.37;100.00;95798.56;5140307;27;20073;-51
2022/09/17 00:44:36;;;;;;;4.97;3.17;;;;;;;16.24;100.00;95809.88;5141748;27;20101;-53
2022/09/17 00:47:04;;;;;;;3.42;3.13;;;;;;;16.18;100.00;95805.38;5139188;27;20074;-55
2022/09/17 00:49:33;;;;;;;3.55;3.00;;;;;;;16.27;100.00;95807.66;5142529;27;20078;-56
2022/09/17 00:52:05;;;;;;;4.10;2.63;;;;;;;16.28;100.00;95808.50;5142275;27;20081;-57
2022/09/17 00:54:35;;;;;;;3.60;2.50;;;;;;;16.16;100.00;95800.22;5148025;27;20082;-53
2022/09/17 00:57:03;;;;;;;2.53;2.20;;;;;;;16.29;100.00;95807.47;5148117;27;20481;-56
2022/09/17 00:59:35;;;;;;;2.92;2.30;;;;;;;16.21;100.00;95805.78;5146272;27;20516;-53
2022/09/17 01:02:04;;;;;;;2.70;2.30;;;;;;;16.21;100.00;95803.13;5138913;27;20106;-56
2022/09/17 01:04:33;;;;;;;4.00;2.20;;;;;;;16.10;100.00;95801.00;5144834;27;20523;-55
2022/09/17 01:07:08;;;;;;;2.45;2.20;;;;;;;15.63;100.00;95808.63;5146728;27;20097;-49
2022/09/17 01:09:47;;;;;;;3.72;2.08;;;;;;;16.05;100.00;95819.41;5139584;27;20085;-57
2022/09/17 01:12:41;;;;;;;3.53;2.00;;;;;;;15.70;100.00;95823.84;5139554;27;20109;-57
2022/09/17 01:15:19;;;;;;;5.35;2.00;;;;;;;15.69;100.00;95828.34;5145826;27;20341;-56
2022/09/17 01:17:58;;;;;;;2.90;2.10;;;;;;;15.92;100.00;95827.28;5140296;27;20034;-57
2022/09/17 01:21:14;;;;;;;4.97;2.40;;;;;;;15.58;100.00;95826.97;5142332;27;20575;-56
2022/09/17 01:24:12;;;;;;;2.50;2.13;;;;;;;15.77;100.00;95825.53;5135794;27;20086;-56
2022/09/17 01:27:15;;;;;;;4.07;2.00;;;;;;;16.00;100.00;95833.28;5124161;27;20082;-59
2022/09/17 01:29:56;;;;;;;3.03;2.22;;;;;;;16.44;100.00;95826.78;5144919;27;20082;-56
2022/09/17 01:32:31;;;;;;;2.70;2.50;;;;;;;16.47;100.00;95825.56;5135813;27;20090;-56
2022/09/17 01:35:04;;;;;;;2.72;2.38;;;;;;;16.56;100.00;95827.06;5141594;27;20466;-56
2022/09/17 01:37:36;;;;;;;8.00;2.92;;;;;;;17.08;100.00;95820.31;5145048;27;20075;-51
2022/09/17 01:40:08;;;;;;;2.65;2.20;;;;;;;17.38;100.00;95820.81;5138089;27;20075;-53
2022/09/17 01:42:41;;;;;;;3.15;2.28;;;;;;;17.07;100.00;95816.84;5145710;27;20074;-54
2022/09/17 01:45:14;;;;;;;4.78;2.38;;;;;;;17.28;100.00;95810.53;5140526;27;20596;-57
2022/09/17 01:47:45;;;;;;;3.45;2.30;;;;;;;17.46;100.00;95807.28;5139967;27;20070;-57
2022/09/17 01:50:17;;;;;;;3.47;2.25;;;;;;;17.38;100.00;95810.16;5141501;27;20078;-56
2022/09/17 01:52:48;;;;;;;2.30;2.10;;;;;;;17.47;100.00;95808.09;5148601;27;20085;-58
2022/09/17 01:55:18;;;;;;;3.75;2.10;;;;;;;17.06;100.00;95814.38;5141798;27;20046;-58
2022/09/17 01:57:51;;;;;;;4.70;2.10;;;;;;;17.20;100.00;95816.03;5143778;27;20082;-57
2022/09/17 02:00:21;;;;;;;3.55;2.33;;;;;;;16.42;100.00;95810.22;5142563;27;20248;-52
2022/09/17 02:02:55;;;;;;;3.65;2.60;;;;;;;16.97;100.00;95808.41;5135391;27;20042;-53
2022/09/17 02:05:27;;;;;;;3.63;2.67;;;;;;;16.50;100.00;95818.00;5142013;27;20468;-55
2022/09/17 02:07:59;;;;;;;4.93;2.75;;;;;;;17.02;100.00;95821.94;5135536;27;20476;-58
2022/09/17 02:10:29;;;;;;;5.63;2.35;;;;;;;16.78;100.00;95823.28;5134683;27;20078;-58
2022/09/17 02:13:00;;;;;;;;;;;;;;;16.73;100.00;95820.38;5142541;27;20063;-54
2022/09/17 02:15:29;;;;;;;;;;;;;;;16.79;100.00;95819.63;5139855;27;19982;-55
2022/09/17 02:18:03;;;;;;;3.65;2.35;;;;;;;16.46;100.00;95821.28;5143302;27;19950;-56
2022/09/17 02:20:37;;;;;;;7.03;2.83;;;;;;;15.99;100.00;95828.13;5142060;27;20089;-55
2022/09/17 02:23:08;;;;;;;4.22;2.65;;;;;;;15.87;100.00;95814.56;5141512;27;20087;-57
2022/09/17 02:25:39;;;;;;;5.80;3.22;;;;;;;15.73;100.00;95808.34;5145901;27;20089;-54
2022/09/17 02:28:12;;;;;;;3.58;2.85;;;;;;;15.71;100.00;95804.22;5140264;27;20074;-52
2022/09/17 02:30:41;;;;;;;3.63;3.00;;;;;;;15.50;100.00;95799.72;5143879;27;20565;-55
2022/09/17 02:33:13;;;;;;;3.90;3.00;;;;;;;15.37;100.00;95803.06;5140540;27;20074;-55
2022/09/17 02:35:42;;;;;;;5.72;3.20;;;;;;;15.17;100.00;95797.56;5145264;27;20090;-54
2022/09/17 02:38:10;;;;;;;4.90;2.72;;;;;;;14.98;100.00;95796.38;5142064;27;20082;-55
2022/09/17 02:40:45;;;;;;;3.17;2.83;;;;;;;14.99;100.00;95799.84;5144319;27;20082;-57
2022/09/17 02:43:27;;;;;;;5.00;3.65;;;;;;;15.10;100.00;95799.34;5138089;27;20082;-52
2022/09/17 02:46:06;;;;;;;4.03;3.63;;;;;;;14.87;100.00;95796.88;5133158;27;20659;-57
2022/09/17 02:48:54;;;;;;;4.15;3.75;;;;;;;15.14;100.00;95797.94;5137969;27;20082;-56
2022/09/17 02:51:32;;;;;;;4.18;3.50;;;;;;;15.15;100.00;95791.63;5139324;27;20101;-53
2022/09/17 02:54:08;;;;;;;5.07;3.63;;;;;;;15.56;100.00;95777.69;5141360;27;20098;-53
2022/09/17 02:56:45;;;;;;;3.50;2.80;;;;;;;14.05;100.00;95778.47;5143105;27;20508;-51
2022/09/17 02:59:19;;;;;;;4.38;3.45;;;;;;;15.13;100.00;95772.41;5136815;27;20700;-49
2022/09/17 03:01:52;;;;;;;7.00;3.47;;;;;;;15.10;100.00;95776.25;5145048;27;20074;-53
2022/09/17 03:04:22;;;;;;;4.80;3.22;;;;;;;15.31;100.00;95770.13;5141036;27;20094;-56
2022/09/17 03:06:52;;;;;;;4.93;3.38;;;;;;;15.29;100.00;95771.34;5134080;27;20093;-57
2022/09/17 03:09:20;;;;;;;6.18;3.40;;;;;;;14.98;100.00;95766.34;5144458;27;20572;-51
2022/09/17 03:11:48;;;;;;;3.88;3.35;;;;;;;15.39;100.00;95756.72;5133152;27;20062;-57
2022/09/17 03:14:19;;;;;;;5.30;3.47;;;;;;;15.07;100.00;95750.09;5142854;27;20081;-55
2022/09/17 03:16:47;;;;;;;3.65;3.08;;;;;;;15.18;100.00;95757.56;5142745;27;20472;-54
2022/09/17 03:19:16;;;;;;;3.97;3.00;;;;;;;15.06;100.00;95753.75;5140567;27;20089;-57
2022/09/17 03:21:45;;;;;;;3.30;2.97;;;;;;;15.33;100.00;95756.66;5143260;27;20078;-56
2022/09/17 03:24:14;;;;;;;4.20;3.37;;;;;;;14.77;100.00;95761.84;5142702;27;20480;-55
2022/09/17 03:26:42;;;;;;;4.93;3.17;;;;;;;15.13;100.00;95757.28;5142268;27;20595;-56
2022/09/17 03:29:11;;;;;;;5.55;3.00;;;;;;;15.26;100.00;95771.72;5148237;27;20367;-56
2022/09/17 03:31:39;;;;;;;6.63;3.40;;;;;;;15.20;100.00;95771.44;5138660;27;20082;-58
2022/09/17 03:34:09;;;;;;;5.78;3.03;;;;;;;15.08;100.00;95761.53;5140798;27;20089;-54
2022/09/17 03:36:37;;;;;;;4.32;2.90;;;;;;;15.28;100.00;95762.56;5144868;27;20677;-50
2022/09/17 03:39:07;;;;;;;4.03;2.97;;;;;;;15.24;100.00;95766.56;5139840;27;20074;-56
2022/09/17 03:41:35;;;;;;;5.97;3.10;;;;;;;15.34;100.00;95774.22;5135281;27;20071;-56
2022/09/17 03:44:03;;;;;;;6.55;3.10;;;;;;;14.49;100.00;95781.09;5139099;27;21063;-53
2022/09/17 03:46:32;;;;;;;5.25;3.20;;;;;;;14.82;100.00;95783.31;5137375;27;20085;-54
2022/09/17 03:49:01;;;;;;;3.80;3.20;;;;;;;14.40;100.00;95787.50;5134464;27;20086;-53
2022/09/17 03:51:29;;;;;;;4.30;3.17;;;;;;;14.75;100.00;95775.28;5143034;27;20086;-57
2022/09/17 03:53:58;;;;;;;4.72;3.33;;;;;;;14.83;100.00;95774.34;5135991;27;20079;-52
2022/09/17 03:56:28;;;;;;;4.28;3.00;;;;;;;14.86;100.00;95764.16;5140612;27;20082;-54
2022/09/17 03:58:58;;;;;;;4.20;3.00;;;;;;;14.60;100.00;95758.59;5144119;27;20090;-53
2022/09/17 04:01:27;;;;;;;3.88;3.33;;;;;;;14.74;100.00;95765.69;5136346;27;20082;-55
2022/09/17 04:03:56;;;;;;;3.72;2.85;;;;;;;14.25;100.00;95769.78;5148976;27;20066;-52
2022/09/17 04:06:24;;;;;;;3.47;3.10;;;;;;;14.45;100.00;95770.03;5136747;27;20083;-50
2022/09/17 04:08:53;;;;;;;4.45;2.95;;;;;;;14.42;100.00;95767.75;5130997;27;20094;-50
2022/09/17 04:11:21;;;;;;;4.63;2.88;;;;;;;14.68;100.00;95761.13;5135352;27;20086;-58
2022/09/17 04:13:51;;;;;;;3.08;2.78;;;;;;;14.78;100.00;95760.81;5141653;27;20066;-55
2022/09/17 04:16:19;;;;;;;4.60;3.13;;;;;;;14.34;100.00;95762.53;5135967;27;20129;-50
2022/09/17 04:18:47;;;;;;;7.65;3.22;;;;;;;15.05;100.00;95751.31;5141128;27;20075;-50
2022/09/17 04:21:16;;;;;;;4.90;3.38;;;;;;;14.74;100.00;95757.72;5147946;27;20082;-53
2022/09/17 04:23:44;;;;;;;3.78;3.30;;;;;;;14.55;100.00;95763.63;5139487;27;20058;-48
2022/09/17 04:26:13;;;;;;;4.43;2.92;;;;;;;14.00;100.00;95758.63;5146870;27;20082;-48
2022/09/17 04:28:41;;;;;;;6.78;3.17;;;;;;;14.47;100.00;95760.03;5146539;27;20473;-49
2022/09/17 04:31:11;;;;;;;6.45;3.10;;;;;;;14.59;100.00;95760.41;5151048;27;20078;-52
2022/09/17 04:33:40;;;;;;;4.05;3.13;;;;;;;14.26;100.00;95754.69;5151290;27;20462;-53
2022/09/17 04:36:08;;;;;;;3.60;2.90;;;;;;;14.16;100.00;95760.25;5139979;27;20164;-57
2022/09/17 04:38:37;;;;;;;5.38;3.25;;;;;;;14.04;100.00;95760.91;5148335;27;20089;-54
2022/09/17 04:41:06;;;;;;;4.07;3.10;;;;;;;14.17;100.00;95764.53;5137828;27;20090;-53
2022/09/17 04:43:35;;;;;;;6.90;3.20;;;;;;;14.33;100.00;95770.69;5142100;27;20078;-51
2022/09/17 04:46:03;;;;;;;3.35;2.85;;;;;;;13.96;100.00;95783.03;5130869;27;20623;-56
2022/09/17 04:48:33;;;;;;;5.82;3.30;;;;;;;14.39;100.00;95791.97;5143453;27;20547;-53
2022/09/17 04:51:02;;;;;;;5.63;3.50;;;;;;;14.53;100.00;95810.75;5141809;27;20074;-51
2022/09/17 04:53:30;;;;;;;4.68;3.28;;;;;;;15.04;100.00;95811.56;5131930;27;20085;-53
2022/09/17 04:55:58;;;;;;;4.95;3.55;;;;;;;15.27;100.00;95813.19;5143330;27;20115;-55
2022/09/17 04:58:29;;;;;;;5.90;3.70;;;;;;;14.96;100.00;95830.22;5140480;27;20096;-54
2022/09/17 05:00:58;;;;;;;4.85;3.58;;;;;;;15.40;100.00;95838.06;5145413;27;20114;-55
2022/09/17 05:03:26;;;;;;;3.63;3.22;;;;;;;15.96;100.00;95849.81;5149615;27;20072;-52
2022/09/17 05:05:56;;;;;;;5.75;3.42;;;;;;;15.14;100.00;95864.34;5149182;27;20082;-51
2022/09/17 05:08:24;;;;;;;5.33;3.33;;;;;;;15.50;100.00;95866.97;5142981;27;20559;-54
2022/09/17 05:10:53;;;;;;;9.18;3.08;;;;;;;15.69;100.00;95880.66;5144918;27;20078;-52
2022/09/17 05:13:21;;;;;;;3.38;2.72;;;;;;;15.18;100.00;95889.53;5144472;27;20085;-54
2022/09/17 05:15:49;;;;;;;6.18;2.80;;;;;;;15.75;100.00;95885.22;5138173;27;20078;-51
2022/09/17 05:18:18;;;;;;;3.35;2.92;;;;;;;15.33;100.00;95887.63;5133829;27;20093;-52
2022/09/17 05:20:46;;;;;;;6.90;3.00;;;;;;;15.47;100.00;95888.59;5142906;27;20074;-53
2022/09/17 05:23:16;;;;;;;3.13;2.78;;;;;;;15.97;100.00;95891.34;5142669;27;20509;-54
2022/09/17 05:25:44;;;;;;;3.53;2.88;;;;;;;15.81;100.00;95895.91;5137692;27;20059;-51
2022/09/17 05:28:13;;;;;;;5.68;3.20;;;;;;;15.61;100.00;95894.88;5137336;27;20065;-56
2022/09/17 05:30:41;;;;;;;4.07;2.88;;;;;;;15.65;100.00;95902.25;5142283;27;20086;-52
2022/09/17 05:33:10;;;;;;;7.22;3.10;;;;;;;15.06;100.00;95913.06;5145170;27;20691;-53
2022/09/17 05:35:39;;;;;;;3.38;2.72;;;;;;;14.78;100.00;95917.41;5142040;27;20091;-56
2022/09/17 05:38:08;;;;;;;4.05;2.55;;;;;;;14.56;100.00;95922.66;5145099;27;20078;-54
2022/09/17 05:40:37;;;;;;;4.72;2.50;;;;;;;14.64;100.00;95924.38;5141231;27;20089;-55
2022/09/17 05:43:07;;;;;;;4.75;2.75;;;;;;;15.13;100.00;95919.28;5137489;27;20070;-55
2022/09/17 05:45:36;;;;;;;4.78;2.60;;;;;;;15.18;100.00;95938.16;5137882;27;20066;-50
2022/09/17 05:48:06;;;;;;;3.13;2.60;;;;;;;15.21;100.00;95947.59;5141268;27;20070;-57
2022/09/17 05:50:35;;;;;;;;;;;;;;;15.40;100.00;95948.81;5140519;27;20071;-56
2022/09/17 05:53:04;;;;;;;4.55;2.30;;;;;;;14.63;100.00;95951.94;5140032;27;19957;-51
2022/09/17 05:55:33;;;;;;;2.30;2.10;;;;;;;15.42;100.00;95952.94;5139705;27;20071;-57
2022/09/17 05:58:11;;;;;;;5.22;2.60;;;;;;;14.98;100.00;95944.22;5140391;27;20061;-55
2022/09/17 06:00:40;;;;;;;5.10;2.60;;;;;;;14.56;100.00;95935.91;5139342;27;20082;-53
2022/09/17 06:03:09;;;;;;;4.28;2.50;;;;;;;14.55;100.00;95934.25;5138428;27;20078;-55
2022/09/17 06:05:37;;;;;;;3.45;2.30;;;;;;;14.48;100.00;95931.47;5146327;27;20079;-53
2022/09/17 06:08:06;;;;;;;3.80;2.58;;;;;;;14.57;100.00;95924.28;5146736;27;20544;-52
2022/09/17 06:10:36;;;;;;;3.70;2.60;;;;;;;14.24;100.00;95921.09;5138300;27;20066;-55
2022/09/17 06:13:04;;;;;;;3.53;2.37;;;;;;;14.54;100.00;95926.47;5144218;27;20078;-51
2022/09/17 06:15:34;;;;;;;9.70;2.47;;;;;;;14.43;100.00;95922.41;5151133;27;20499;-50
2022/09/17 06:18:03;;;;;;;4.95;2.53;;;;;;;14.45;100.00;95923.91;5151497;27;20066;-53
2022/09/17 06:20:31;;;;;;;4.55;2.30;;;;;;;15.02;100.00;95930.38;5136875;27;20078;-51
2022/09/17 06:22:59;;;;;;;7.35;2.63;;;;;;;15.46;100.00;95932.13;5147039;27;20078;-49
2022/09/17 06:25:28;;;;;;;4.13;2.47;;;;;;;14.94;100.00;95930.50;5139036;27;20081;-51
2022/09/17 06:27:56;;;;;;;3.45;2.15;;;;;;;14.99;100.00;95932.59;5149504;27;20109;-52
2022/09/17 06:30:25;;;;;;;3.28;2.20;;;;;;;14.96;100.00;95931.94;5133970;27;20537;-55
2022/09/17 06:32:54;;;;;;;3.42;2.13;;;;;;;15.29;100.00;95930.72;5136066;27;20081;-53
2022/09/17 06:35:23;;;;;;;4.43;2.35;;;;;;;15.18;100.00;95930.19;5140181;27;20660;-53
2022/09/17 06:37:51;;;;;;;7.55;2.30;;;;;;;15.40;100.00;95932.88;5142202;27;20058;-55
2022/09/17 06:40:22;;;;;;;6.32;2.35;;;;;;;14.77;100.00;95940.50;5138449;27;20078;-52
2022/09/17 06:42:50;;;;;;;3.05;2.20;;;;;;;14.86;100.00;95943.84;5132936;27;20079;-55
2022/09/17 06:45:19;;;;;;;5.10;2.50;;;;;;;14.80;100.00;95934.81;5142267;27;20081;-55
2022/09/17 06:47:47;;;;;;;2.60;1.80;;;;;;;15.02;100.00;95918.94;5140136;27;20055;-52
2022/09/17 06:50:17;;;;;;;3.85;2.20;;;;;;;15.10;100.00;95921.50;5142321;27;20550;-55
2022/09/17 06:52:49;;;;;;;5.07;2.00;;;;;;;14.68;100.00;95918.50;5136184;27;20069;-54
2022/09/17 06:55:17;;;;;;;5.32;2.22;;;;;;;14.79;100.00;95916.41;5132031;27;20066;-54
2022/09/17 06:57:46;;;;;;;3.05;2.05;;;;;;;15.32;100.00;95917.88;5140994;27;20438;-54
2022/09/17 07:00:15;;;;;;;5.88;2.45;;;;;;;15.35;100.00;95922.00;5146515;27;20090;-54
2022/09/17 07:02:43;;;;;;;8.23;2.10;;;;;;;15.75;100.00;95917.13;5136863;27;20438;-51
2022/09/17 07:05:12;;;;;;;7.80;2.15;;;;;;;15.47;100.00;95920.50;5146704;27;20078;-52
2022/09/17 07:07:41;;;;;;;4.65;2.15;;;;;;;15.68;100.00;95921.53;5137190;27;20075;-54
2022/09/17 07:10:10;;;;;;;5.47;2.28;;;;;;;15.26;100.00;95929.25;5141212;27;20085;-52
2022/09/17 07:12:40;;;;;;;6.22;2.22;;;;;;;15.70;100.00;95930.16;5142630;27;20085;-53
2022/09/17 07:15:14;;;;;;;5.57;2.15;;;;;;;16.18;100.00;95923.22;5138177;27;20097;-54
2022/09/17 07:17:44;;;;;;;4.45;2.00;;;;;;;16.03;100.00;95915.31;5142742;27;20085;-56
2022/09/17 07:20:12;;;;;;;3.20;1.95;;;;;;;15.90;100.00;95915.22;5136994;27;20528;-55
2022/09/17 07:22:42;;;;;;;5.45;2.42;;;;;;;16.33;100.00;95902.66;5139210;27;20547;-51
2022/09/17 07:25:11;;;;;;;5.50;2.25;;;;;;;16.52;100.00;95901.16;5129280;27;20372;-57
2022/09/17 07:27:40;;;;;;;6.60;2.80;;;;;;;17.15;100.00;95903.75;5139353;27;20075;-54
2022/09/17 07:30:10;;;;;;;5.20;2.20;;;;;;;16.22;100.00;95907.72;5143884;27;20082;-57
2022/09/17 07:32:38;;;;;;;5.88;2.10;;;;;;;16.48;100.00;95915.03;5147535;27;20571;-56
2022/09/17 07:35:07;;;;;;;5.90;2.20;;;;;;;16.75;100.00;95924.03;5145014;27;20531;-54
2022/09/17 07:37:35;;;;;;;3.88;2.25;;;;;;;16.49;100.00;95911.38;5144785;27;20520;-55
2022/09/17 07:40:07;;;;;;;5.05;1.85;;;;;;;16.02;100.00;95907.53;5141110;27;20081;-56
2022/09/17 07:42:35;;;;;;;4.88;2.10;;;;;;;16.74;100.00;95917.06;5141610;27;20071;-56
2022/09/17 07:45:05;;;;;;;4.57;1.90;;;;;;;16.53;100.00;95909.97;5142726;27;20516;-55
2022/09/17 07:47:38;;;;;;;2.92;1.70;;;;;;;16.20;100.00;95907.06;5131629;27;20075;-50
2022/09/17 07:50:08;;;;;;;2.65;1.60;;;;;;;16.40;100.00;95899.22;5140123;27;20610;-52
2022/09/17 07:52:36;;;;;;;4.30;1.88;;;;;;;17.39;100.00;95902.41;5132337;27;20066;-52
2022/09/17 07:55:07;;;;;;;4.40;1.70;;;;;;;17.80;100.00;95896.16;5147066;27;20627;-51
2022/09/17 07:57:35;;;;;;;6.82;1.83;;;;;;;16.53;100.00;95907.31;5134903;27;20106;-54
2022/09/17 08:00:04;;;;;;;5.43;2.00;;;;;;;17.62;100.00;95903.88;5138693;27;20066;-55
2022/09/17 08:02:33;;;;;;;10.85;2.10;;;;;;;16.36;100.00;95891.63;5139551;27;20059;-55
2022/09/17 08:05:01;;;;;;;6.85;1.92;;;;;;;17.22;100.00;95907.25;5149615;27;20074;-56
2022/09/17 08:07:30;;;;;;;3.05;1.25;;;;;;;16.45;100.00;95910.09;5149902;27;20560;-56
2022/09/17 08:09:58;;;;;;;2.05;1.33;;;;;;;16.91;100.00;95904.25;5144538;27;20077;-52
2022/09/17 08:12:28;;;;;;;3.72;1.70;;;;;;;17.06;100.00;95913.75;5142439;27;20075;-55
2022/09/17 08:14:56;;;;;;;5.57;1.50;;;;;;;16.83;100.00;95913.25;5144742;27;20464;-53
2022/09/17 08:17:25;;;;;;;6.70;1.40;;;;;;;16.12;100.00;95916.84;5147100;27;20090;-55
2022/09/17 08:19:53;;;;;;;3.42;1.40;;;;;;;16.25;100.00;95915.31;5139848;27;20524;-51
2022/09/17 08:22:22;;;;;;;6.75;1.85;;;;;;;16.24;100.00;95909.16;5134950;27;20082;-52
2022/09/17 08:24:50;;;;;;;6.13;1.90;;;;;;;16.30;100.00;95921.66;5146066;27;20074;-52
2022/09/17 08:27:18;;;;;;;4.80;1.65;;;;;;;17.36;100.00;95926.78;5144351;27;20089;-55
2022/09/17 08:29:48;;;;;;;4.00;1.55;;;;;;;16.74;100.00;95925.88;5138845;27;20059;-55
2022/09/17 08:32:17;;;;;;;7.40;1.65;;;;;;;17.68;100.00;95916.41;5145997;27;20243;-51
2022/09/17 08:34:45;;;;;;;5.15;1.90;;;;;;;17.43;100.00;95908.97;5153234;27;20054;-52
2022/09/17 08:37:13;;;;;;;3.50;1.50;;;;;;;16.65;100.00;95923.53;5141128;27;20722;-55
2022/09/17 08:39:42;;;;;;;6.00;1.63;;;;;;;16.67;100.00;95925.00;5149601;27;20090;-53
2022/09/17 08:42:16;;;;;;;6.25;1.70;;;;;;;16.45;100.00;95923.41;5142417;27;20070;-51
2022/09/17 08:44:47;;;;;;;2.53;1.30;;;;;;;16.28;100.00;95926.38;5149181;27;20524;-52
2022/09/17 08:47:23;;;;;;;3.15;1.30;;;;;;;16.63;100.00;95934.41;5132378;27;20071;-50
2022/09/17 08:49:53;;;;;;;5.53;1.50;;;;;;;16.69;100.00;95936.28;5131807;27;20078;-50
2022/09/17 08:52:46;;;;;;;3.60;1.67;;;;;;;16.48;100.00;95933.66;5137865;27;20155;-51
2022/09/17 08:55:23;;;;;;;6.22;1.58;;;;;;;16.12;100.00;95946.09;5139365;27;20078;-55
2022/09/17 08:58:00;;;;;;;3.85;1.70;;;;;;;16.23;100.00;95952.72;5139906;27;20074;-50
2022/09/17 09:00:36;;;;;;;4.35;1.80;;;;;;;16.63;100.00;95947.72;5145446;27;20113;-53
2022/09/17 09:03:19;;;;;;;4.57;1.42;;;;;;;16.22;100.00;95956.41;5133787;27;20112;-51
2022/09/17 09:05:49;;;;;;;2.63;1.40;;;;;;;16.22;100.00;95964.38;5148803;27;20096;-51
2022/09/17 09:08:22;;;;;;;2.75;1.30;;;;;;;16.20;100.00;95962.94;5140147;27;20079;-49
2022/09/17 09:10:54;;;;;;;7.43;1.30;;;;;;;16.04;100.00;95966.69;5140878;27;20097;-55
2022/09/17 09:13:25;;;;;;;5.72;1.65;;;;;;;16.04;100.00;95964.84;5139692;27;20090;-50
2022/09/17 09:15:57;;;;;;;5.15;1.40;;;;;;;15.61;100.00;95971.94;5145478;27;20520;-48
2022/09/17 09:18:27;;;;;;;4.80;1.58;;;;;;;15.86;100.00;95983.06;5152507;27;20125;-53
2022/09/17 09:21:02;;;;;;;1.75;1.48;;;;;;;15.09;100.00;95988.91;5141822;27;20093;-52
2022/09/17 09:23:36;;;;;;;1.85;1.15;;;;;;;16.08;100.00;95986.56;5139822;27;20097;-53
2022/09/17 09:26:13;;;;;;;2.78;1.30;;;;;;;15.86;100.00;95988.38;5145937;27;20096;-51
2022/09/17 09:29:03;;;;;;;1.77;1.40;;;;;;;16.50;100.00;95984.88;5147352;27;20079;-54
2022/09/17 09:32:03;;;;;;;2.63;1.42;;;;;;;16.38;100.00;95993.41;5144574;27;20082;-51
2022/09/17 09:34:44;;;;;;;2.70;1.40;;;;;;;15.97;100.00;96003.88;5145928;27;20056;-51
2022/09/17 09:37:16;;;;;;;1.38;1.00;;;;;;;16.03;100.00;95999.59;5139866;27;20054;-55
2022/09/17 09:39:46;;;;;;;3.17;1.30;;;;;;;15.75;100.00;96007.50;5141017;27;20082;-49
2022/09/17 09:42:19;;;;;;;2.95;1.30;;;;;;;15.55;100.00;96009.91;5138326;27;20608;-53
2022/09/17 09:44:48;;;;;;;1.58;1.20;;;;;;;16.41;100.00;96002.81;5139056;27;20087;-55
2022/09/17 09:47:29;;;;;;;1.40;1.10;;;;;;;16.34;100.00;96002.78;5144196;27;20075;-50
2022/09/17 09:50:08;;;;;;;4.78;1.40;;;;;;;15.81;100.00;96014.72;5140661;27;20090;-55
2022/09/17 09:52:49;;;;;;;1.80;1.25;;;;;;;16.28;100.00;96008.88;5148303;27;20536;-55
2022/09/17 09:55:28;;;;;;;3.15;1.30;;;;;;;15.63;100.00;96015.94;5151744;27;20092;-55
2022/09/17 09:58:03;;;;;;;2.20;1.27;;;;;;;16.19;100.00;96007.34;5131607;27;20548;-56
2022/09/17 10:00:35;;;;;;;2.55;1.27;;;;;;;15.80;100.00;96016.56;5146352;27;20098;-50
2022/09/17 10:03:11;;;;;;;1.23;1.10;;;;;;;15.38;100.00;96006.63;5138763;27;20451;-52
2022/09/17 10:05:39;;;;;;;3.47;1.60;;;;;;;15.41;100.00;96017.69;5145145;27;20608;-48
2022/09/17 10:08:12;;;;;;;1.92;1.52;;;;;;;15.80;100.00;96016.56;5142741;27;20074;-54
2022/09/17 10:10:55;;;;;;;2.75;1.60;;;;;;;15.95;100.00;96023.69;5142987;27;20082;-57
2022/09/17 10:13:24;;;;;;;3.90;1.65;;;;;;;16.62;100.00;96007.31;5144744;27;20079;-56
2022/09/17 10:15:52;;;;;;;2.58;1.50;;;;;;;16.22;100.00;96006.97;5133500;27;20083;-56
2022/09/17 10:18:23;;;;;;;2.05;1.40;;;;;;;16.43;100.00;96007.97;5137131;27;20085;-54
2022/09/17 10:20:57;;;;;;;2.70;1.50;;;;;;;16.27;100.00;95999.22;5141590;27;20105;-54
2022/09/17 10:23:28;;;;;;;4.25;1.52;;;;;;;16.12;100.00;96006.47;5138536;27;20078;-55
2022/09/17 10:25:56;;;;;;;2.47;1.35;;;;;;;16.31;100.00;96008.47;5136936;27;20070;-55
2022/09/17 10:28:45;;;;;;;1.98;1.30;;;;;;;16.32;100.00;96002.13;5141384;27;20051;-56
2022/09/17 10:31:14;;;;;;;1.67;1.35;;;;;;;16.51;100.00;95997.16;5135084;27;20083;-50
2022/09/17 10:33:53;;;;;;;2.95;1.27;;;;;;;16.31;100.00;95992.53;5133919;27;20089;-50
2022/09/17 10:36:40;;;;;;;2.78;1.10;;;;;;;17.08;100.00;95985.50;5139168;27;20089;-56
2022/09/17 10:39:30;;;;;;;1.40;1.13;;;;;;;17.28;100.00;95981.09;5144563;27;20085;-55
2022/09/17 10:42:00;;;;;;;3.22;1.30;;;;;;;16.73;100.00;95972.16;5138270;27;20078;-56
2022/09/17 10:44:30;;;;;;;5.13;1.60;;;;;;;17.08;100.00;95988.16;5141581;27;20688;-56
2022/09/17 10:47:06;;;;;;;2.65;1.27;;;;;;;16.83;100.00;95983.31;5135123;27;20071;-55
2022/09/17 10:49:39;;;;;;;3.20;1.50;;;;;;;16.38;100.00;95982.75;5129961;27;20070;-53
2022/09/17 10:52:14;;;;;;;3.50;1.65;;;;;;;15.62;100.00;95982.41;5134615;27;20536;-56
2022/09/17 10:54:55;;;;;;;2.63;1.63;;;;;;;15.68;100.00;95990.66;5138999;27;20528;-53
2022/09/17 10:57:34;;;;;;;3.53;1.58;;;;;;;15.56;100.00;95983.16;5137746;27;20073;-55
2022/09/17 11:00:12;;;;;;;2.88;1.60;;;;;;;15.98;100.00;95988.72;5139194;27;20093;-51
2022/09/17 11:03:13;;;;;;;2.85;1.70;;;;;;;15.36;100.00;95987.41;5141096;27;20090;-53
2022/09/17 11:06:05;;;;;;;5.43;1.98;;;;;;;15.55;100.00;95983.31;5096080;27;20464;-53
2022/09/17 11:08:43;;;;;;;3.83;1.80;;;;;;;15.61;100.00;95998.53;5135537;27;20110;-54
2022/09/17 11:11:17;;;;;;;3.20;1.80;;;;;;;16.13;100.00;95997.44;5142974;27;20477;-55
2022/09/17 11:13:53;;;;;;;3.60;1.95;;;;;;;16.02;100.00;95988.16;5136785;27;20090;-56
2022/09/17 11:16:32;;;;;;;3.10;2.00;;;;;;;16.79;100.00;95994.53;5139490;27;20948;-51
2022/09/17 11:19:07;;;;;;;4.65;1.90;;;;;;;16.15;100.00;95990.13;5134015;27;20074;-56
2022/09/17 11:21:48;;;;;;;2.67;1.80;;;;;;;17.17;100.00;95989.66;5134219;27;20175;-57
2022/09/17 11:24:44;;;;;;;2.28;1.40;;;;;;;18.06;100.00;95990.56;5136012;27;20265;-51
2022/09/17 11:27:32;;;;;;;3.05;1.40;;;;;;;17.59;100.00;95998.44;5140990;27;20090;-52
2022/09/17 11:30:09;;;;;;;4.20;1.42;;;;;;;17.47;100.00;95986.69;5138492;27;20486;-51
2022/09/17 11:33:00;;;;;;;5.53;1.70;;;;;;;17.44;100.00;95977.25;5139369;27;20904;-52
2022/09/17 11:35:32;;;;;;;4.53;1.33;;;;;;;17.84;100.00;95973.91;5142840;27;20062;-49
2022/09/17 11:38:06;;;;;;;5.32;1.42;;;;;;;17.55;100.00;95976.69;5137684;27;20081;-53
2022/09/17 11:40:38;;;;;;;3.90;1.10;;;;;;;17.47;100.00;95976.03;5138518;27;20078;-53
2022/09/17 11:43:15;;;;;;;3.53;1.40;;;;;;;18.44;100.00;95970.28;5138622;27;20055;-53
2022/09/17 11:45:50;;;;;;;2.97;1.20;;;;;;;19.20;100.00;95976.97;5137214;27;20082;-54
2022/09/17 11:48:20;;;;;;;7.05;1.20;;;;;;;19.16;100.00;95960.53;5140035;27;20548;-58
2022/09/17 11:50:52;;;;;;;3.83;1.20;;;;;;;19.67;99.43;95959.72;5134391;27;20075;-55